Time;durP1;ratioP1;P1;durP2;ratioP2;P2;SDS_P1;SDS_P2;PMS_P1;PMS_P2;Temp;Humidity;BMP_temperature;BMP_pressure;BME280_temperature;BME280_humidity;BME280_pressure;Samples;Min_cycle;Max_cycle;Signal;HPM_P1;HPM_P2
2022/04/26 08:51:00;;;;;;;6.85;1.25;;;23.30;99.90;;;;;;5093812;28;20395;-85
2022/04/26 08:53:30;;;;;;;8.52;1.20;;;23.80;99.90;;;;;;5094119;28;20466;-87
2022/04/26 08:56:01;;;;;;;3.67;1.02;;;23.40;99.90;;;;;;5076609;28;20020;-87
2022/04/26 08:58:31;;;;;;;5.90;1.20;;;23.10;99.90;;;;;;5076703;28;20028;-87
2022/04/26 09:01:06;;;;;;;6.88;1.70;;;24.20;99.90;;;;;;5076527;28;20035;-87
2022/04/26 09:03:56;;;;;;;;;;;23.50;99.90;;;;;;5076929;28;20157;-87
2022/04/26 09:06:40;;;;;;;7.45;1.60;;;23.10;99.90;;;;;;5076512;28;20387;-87
2022/04/26 09:09:09;;;;;;;5.38;1.33;;;22.30;99.90;;;;;;5076450;28;20473;-87
2022/04/26 09:11:36;;;;;;;6.35;2.40;;;22.50;99.90;;;;;;5076383;28;20123;-87
2022/04/26 09:14:08;;;;;;;7.15;1.90;;;22.60;99.90;;;;;;5076380;28;20114;-87
2022/04/26 09:16:35;;;;;;;7.28;2.13;;;23.30;99.90;;;;;;5076282;28;20052;-87
2022/04/26 09:19:08;;;;;;;5.57;1.63;;;23.00;99.90;;;;;;5076262;28;20437;-87
2022/04/26 09:21:36;;;;;;;6.57;1.50;;;22.20;99.90;;;;;;5072717;28;20027;-86
2022/04/26 09:24:06;;;;;;;4.70;1.35;;;22.40;99.90;;;;;;5104504;28;20024;-85
2022/04/26 09:26:38;;;;;;;7.32;2.00;;;23.00;99.90;;;;;;5104928;28;20442;-86
2022/04/26 09:29:07;;;;;;;5.65;1.42;;;23.40;99.90;;;;;;5087745;28;20035;-85
2022/04/26 09:31:37;;;;;;;5.57;1.30;;;23.50;99.90;;;;;;5113364;28;20030;-86
2022/04/26 09:34:14;;;;;;;9.00;1.52;;;22.70;99.90;;;;;;5102006;28;20060;-86
2022/04/26 09:36:50;;;;;;;8.32;1.73;;;23.30;99.90;;;;;;5093677;28;20492;-86
2022/04/26 09:39:25;;;;;;;6.00;1.30;;;23.30;99.90;;;;;;5089419;28;20027;-85
2022/04/26 09:41:52;;;;;;;5.80;1.25;;;23.40;99.90;;;;;;5093352;28;20027;-86
2022/04/26 09:44:33;;;;;;;6.80;1.40;;;23.30;99.90;;;;;;5109506;28;20111;-85
2022/04/26 09:47:01;;;;;;;5.30;1.40;;;23.60;99.90;;;;;;5105191;28;20522;-86
2022/04/26 09:49:37;;;;;;;11.02;1.50;;;23.10;99.90;;;;;;5094448;28;20027;-87
2022/04/26 09:52:06;;;;;;;7.28;1.17;;;22.60;99.90;;;;;;5103319;28;20027;-86
2022/04/26 09:54:37;;;;;;;5.38;1.02;;;22.30;99.90;;;;;;5102128;28;20049;-86
2022/04/26 09:57:06;;;;;;;2.90;1.13;;;22.20;99.90;;;;;;5091878;28;20063;-85
2022/04/26 09:59:38;;;;;;;7.15;1.20;;;22.30;99.90;;;;;;5083523;28;20473;-85
2022/04/26 10:02:10;;;;;;;5.72;1.70;;;22.90;99.90;;;;;;5066465;28;20096;-86
2022/04/26 10:04:44;;;;;;;8.43;1.42;;;23.40;99.90;;;;;;5089880;28;20031;-86
2022/04/26 10:07:14;;;;;;;8.27;1.63;;;23.70;99.90;;;;;;5078959;28;20060;-88
2022/04/26 10:09:41;;;;;;;5.82;1.05;;;23.50;99.90;;;;;;5081974;28;20097;-85
2022/04/26 10:12:08;;;;;;;3.63;1.08;;;23.30;99.90;;;;;;5089380;28;20032;-86
2022/04/26 10:14:37;;;;;;;6.25;1.40;;;23.50;99.90;;;;;;5093981;28;20482;-86
2022/04/26 10:17:04;;;;;;;4.03;1.25;;;23.90;99.90;;;;;;5082199;28;20031;-86
2022/04/26 10:19:39;;;;;;;5.93;1.08;;;24.00;99.90;;;;;;5088491;28;20019;-86
2022/04/26 10:22:08;;;;;;;7.00;1.00;;;23.60;99.90;;;;;;5085541;28;20025;-86
2022/04/26 10:24:36;;;;;;;2.17;1.00;;;22.80;99.90;;;;;;5071752;28;20126;-86
2022/04/26 10:27:35;;;;;;;4.10;1.08;;;22.60;99.90;;;;;;5089837;28;20538;-87
2022/04/26 10:30:01;;;;;;;6.78;1.23;;;23.30;99.90;;;;;;5000965;28;20041;-87
2022/04/26 10:32:40;;;;;;;4.53;1.23;;;22.60;99.90;;;;;;5034816;28;20025;-86
2022/04/26 10:35:36;;;;;;;4.55;0.93;;;22.40;99.90;;;;;;5018893;28;20029;-83
2022/04/26 10:38:35;;;;;;;5.53;1.13;;;23.10;99.90;;;;;;5062591;22;20147;-94
2022/04/26 10:41:09;;;;;;;3.55;0.90;;;23.50;99.90;;;;;;5005479;28;20085;-92
2022/04/26 10:43:37;;;;;;;6.60;1.15;;;23.50;99.90;;;;;;5007491;28;20038;-95
2022/04/26 10:46:16;;;;;;;7.60;1.38;;;23.10;99.90;;;;;;4987509;28;20037;-90
2022/04/26 10:48:43;;;;;;;3.67;1.02;;;22.80;99.90;;;;;;5003090;28;20021;-91
2022/04/26 10:51:35;;;;;;;7.28;1.35;;;23.40;99.90;;;;;;5029900;28;20021;-92
2022/04/26 10:54:02;;;;;;;5.82;1.23;;;22.60;99.90;;;;;;5019297;28;20183;-90
2022/04/26 10:56:30;;;;;;;5.43;1.85;;;23.00;99.90;;;;;;5006555;28;20026;-90
2022/04/26 10:58:56;;;;;;;5.50;1.20;;;22.80;99.90;;;;;;4984092;28;20391;-90
2022/04/26 11:01:24;;;;;;;3.95;0.90;;;23.00;99.90;;;;;;5006167;28;20021;-91
2022/04/26 11:03:58;;;;;;;4.97;1.30;;;22.60;99.90;;;;;;4994571;28;20479;-91
2022/04/26 11:06:40;;;;;;;3.85;1.10;;;22.70;99.90;;;;;;4997144;28;20500;-92
2022/04/26 11:09:12;;;;;;;4.05;1.40;;;22.80;99.90;;;;;;4986252;28;20037;-93
2022/04/26 11:11:53;;;;;;;3.90;1.40;;;22.70;99.90;;;;;;4994292;28;20052;-93
2022/04/26 11:14:20;;;;;;;4.35;1.52;;;23.30;99.90;;;;;;4985226;28;20100;-92
2022/04/26 11:16:59;;;;;;;4.15;1.08;;;24.00;99.90;;;;;;4982551;28;20028;-93
2022/04/26 11:19:47;;;;;;;7.80;1.50;;;24.10;99.90;;;;;;4982158;28;20475;-94
2022/04/26 11:22:14;;;;;;;7.43;1.58;;;24.10;99.90;;;;;;4982076;28;20033;-93
2022/04/26 11:30:40;;;;;;;5.28;1.20;;;22.50;99.90;;;;;;5014434;28;20036;-91
2022/04/26 11:33:22;;;;;;;3.47;1.00;;;22.60;99.90;;;;;;5015898;28;20029;-92
2022/04/26 11:35:59;;;;;;;5.68;1.58;;;22.50;99.90;;;;;;5018894;28;20029;-93
2022/04/26 11:38:27;;;;;;;4.20;1.30;;;22.60;99.90;;;;;;4999364;28;20120;-92
2022/04/26 11:41:03;;;;;;;4.30;1.20;;;23.00;99.90;;;;;;4994766;28;20076;-93
2022/04/26 11:43:37;;;;;;;6.00;1.58;;;23.20;99.90;;;;;;4991014;28;20439;-92
2022/04/26 11:46:05;;;;;;;6.55;1.20;;;23.10;99.90;;;;;;4979680;28;20041;-91
2022/04/26 11:48:34;;;;;;;4.07;1.00;;;22.40;99.90;;;;;;4997317;28;20030;-92
2022/04/26 11:51:02;;;;;;;5.13;1.10;;;22.10;99.90;;;;;;5019532;28;20129;-92
2022/04/26 11:53:30;;;;;;;4.55;1.20;;;22.60;99.90;;;;;;4995561;28;20031;-93
2022/04/26 11:56:03;;;;;;;7.63;1.33;;;22.90;99.90;;;;;;4979222;28;20026;-93
2022/04/26 11:58:40;;;;;;;4.00;0.90;;;23.00;99.90;;;;;;4995344;28;20403;-93
2022/04/26 12:01:12;;;;;;;3.70;1.00;;;23.00;99.90;;;;;;4996688;28;20399;-92
2022/04/26 12:03:52;;;;;;;4.65;1.13;;;22.70;99.90;;;;;;4978658;28;20333;-92
2022/04/26 12:06:28;;;;;;;6.68;1.25;;;22.90;99.90;;;;;;4999980;28;20053;-93
2022/04/26 12:08:56;;;;;;;4.90;1.00;;;22.90;99.90;;;;;;4994645;28;20034;-93
2022/04/26 12:14:22;;;;;;;4.72;1.35;;;23.10;99.90;;;;;;5374463;23;20084;-92
2022/04/26 12:16:57;;;;;;;5.47;1.10;;;23.00;99.90;;;;;;5027992;28;20045;-92
2022/04/26 12:19:37;;;;;;;7.05;1.20;;;22.90;99.90;;;;;;5039295;28;20029;-94
2022/04/26 12:22:06;;;;;;;4.85;1.13;;;22.70;99.90;;;;;;5038748;28;20428;-92
2022/04/26 12:24:45;;;;;;;4.63;1.25;;;22.60;99.90;;;;;;5021549;28;20112;-93
2022/04/26 12:27:17;;;;;;;7.07;1.58;;;22.30;99.90;;;;;;5022024;28;20041;-92
2022/04/26 12:29:46;;;;;;;9.02;1.52;;;21.90;99.90;;;;;;5022594;28;20052;-92
2022/04/26 12:32:15;;;;;;;3.20;1.30;;;21.80;99.90;;;;;;5022485;28;20056;-94
2022/04/26 12:34:56;;;;;;;7.60;1.65;;;22.10;99.90;;;;;;5021013;28;20482;-92
2022/04/26 12:37:27;;;;;;;5.88;1.50;;;22.60;99.90;;;;;;5022134;28;20048;-95
2022/04/26 12:40:38;;;;;;;8.15;1.42;;;22.60;99.90;;;;;;5027512;28;20032;-92
2022/04/26 12:43:28;;;;;;;2.72;1.25;;;22.60;99.90;;;;;;5020556;28;20545;-94
2022/04/26 12:46:09;;;;;;;5.90;1.58;;;22.70;99.90;;;;;;5023441;28;20409;-92
2022/04/26 12:51:29;;;;;;;6.53;1.23;;;22.90;99.90;;;;;;5039903;28;20029;-94
2022/04/26 12:54:12;;;;;;;6.57;1.70;;;22.80;99.90;;;;;;5029045;28;20039;-94
2022/04/26 12:56:55;;;;;;;3.67;1.00;;;22.10;99.90;;;;;;5037977;28;20040;-92
2022/04/26 13:12:03;;;;;;;3.03;0.75;;;22.40;99.90;;;;;;5184342;22;20206;-95
2022/04/26 13:14:31;;;;;;;3.20;1.00;;;22.10;99.90;;;;;;5005636;28;20045;-94
2022/04/26 13:16:58;;;;;;;6.07;1.30;;;22.20;99.90;;;;;;5024238;28;20045;-95
2022/04/26 13:19:25;;;;;;;6.60;1.35;;;22.20;99.90;;;;;;5021543;28;20053;-94
2022/04/26 13:21:57;;;;;;;6.90;1.67;;;22.00;99.90;;;;;;5015890;28;20041;-94
2022/04/26 13:24:29;;;;;;;4.47;1.25;;;22.40;99.90;;;;;;5060504;28;20029;-94
2022/04/26 13:26:59;;;;;;;5.68;1.20;;;22.20;99.90;;;;;;5043879;28;20421;-94
2022/04/26 13:29:32;;;;;;;7.57;1.20;;;22.30;99.90;;;;;;5022588;28;20033;-93
2022/04/26 13:32:00;;;;;;;2.22;0.95;;;22.30;99.90;;;;;;5051118;28;20040;-92
2022/04/26 13:34:27;;;;;;;7.00;1.63;;;21.90;99.90;;;;;;5056775;28;20470;-94
2022/04/26 13:36:57;;;;;;;6.18;1.27;;;21.90;99.90;;;;;;5044178;28;20025;-94
2022/04/26 13:39:29;;;;;;;6.80;1.25;;;22.00;99.90;;;;;;5048607;28;20032;-94
2022/04/26 13:42:11;;;;;;;3.88;0.98;;;22.10;99.90;;;;;;5055223;28;20092;-94
2022/04/26 13:44:38;;;;;;;9.07;1.40;;;22.00;99.90;;;;;;5069291;28;20121;-95
2022/04/26 13:47:11;;;;;;;7.20;1.30;;;22.10;99.90;;;;;;5053980;28;20052;-94
2022/04/26 13:49:41;;;;;;;5.05;1.10;;;22.40;99.90;;;;;;5034654;28;20043;-93
2022/04/26 13:52:20;;;;;;;5.20;1.20;;;22.60;99.90;;;;;;5073871;28;20494;-94
2022/04/26 13:54:59;;;;;;;5.77;1.13;;;22.40;99.90;;;;;;5116611;22;20045;-95
2022/04/26 13:57:47;;;;;;;8.00;1.40;;;22.60;99.90;;;;;;5086620;28;20027;-95
2022/04/26 14:00:25;;;;;;;4.60;1.02;;;22.70;99.90;;;;;;5086065;28;20079;-94
2022/04/26 14:02:55;;;;;;;4.90;0.88;;;22.60;99.90;;;;;;5071847;28;20123;-94
2022/04/26 14:05:24;;;;;;;7.70;1.50;;;22.80;99.90;;;;;;5070007;28;20025;-95
2022/04/26 14:07:58;;;;;;;5.10;1.00;;;22.70;99.90;;;;;;5069959;28;20051;-94
2022/04/26 14:10:27;;;;;;;5.80;1.40;;;22.40;99.90;;;;;;5053020;28;20037;-94
2022/04/26 14:12:55;;;;;;;6.25;1.40;;;22.30;99.90;;;;;;5075800;28;20077;-93
2022/04/26 14:23:57;;;;;;;6.97;1.10;;;22.60;99.90;;;;;;5093079;28;20035;-93
2022/04/26 14:26:41;;;;;;;8.23;1.35;;;22.80;99.90;;;;;;5076153;28;20064;-95
2022/04/26 14:29:11;;;;;;;6.95;1.40;;;23.00;99.90;;;;;;5121822;22;20045;-93
2022/04/26 14:31:39;;;;;;;4.47;1.30;;;22.90;99.90;;;;;;5044746;28;20028;-93
2022/04/26 14:34:06;;;;;;;6.20;1.27;;;22.90;99.90;;;;;;5055100;28;20402;-96
2022/04/26 14:36:33;;;;;;;7.57;1.52;;;22.80;99.90;;;;;;5050936;28;20054;-94
2022/04/26 14:38:59;;;;;;;7.88;1.40;;;22.70;99.90;;;;;;5048642;28;20029;-94
2022/04/26 14:41:26;;;;;;;4.70;1.27;;;22.60;99.90;;;;;;5049736;28;20028;-93
2022/04/26 14:43:56;;;;;;;3.55;1.10;;;22.30;99.90;;;;;;5050885;28;20110;-95
2022/04/26 14:46:23;;;;;;;3.10;0.90;;;21.90;99.90;;;;;;5048826;28;20071;-92
2022/04/26 14:48:54;;;;;;;8.07;1.20;;;21.90;99.90;;;;;;5050987;28;20020;-93
2022/04/26 14:51:23;;;;;;;2.30;1.05;;;21.90;99.90;;;;;;5052468;28;20089;-94
2022/04/26 14:53:51;;;;;;;5.72;1.05;;;21.80;99.90;;;;;;5056253;28;20055;-94
2022/04/26 14:56:24;;;;;;;1.98;1.25;;;22.10;99.90;;;;;;5058111;28;20035;-93
2022/04/26 14:58:54;;;;;;;8.27;1.85;;;22.20;99.90;;;;;;5057145;28;20374;-94
2022/04/26 15:01:29;;;;;;;4.32;1.20;;;22.20;99.90;;;;;;5058267;28;20052;-92
2022/04/26 15:04:00;;;;;;;3.22;1.13;;;22.00;99.90;;;;;;5052581;28;20028;-93
2022/04/26 15:18:07;;;;;;;10.65;1.15;;;21.80;99.90;;;;;;5052590;28;20101;-94
2022/04/26 15:20:34;;;;;;;4.15;1.15;;;21.90;99.90;;;;;;5024644;28;20090;-95
2022/04/26 15:23:01;;;;;;;4.35;1.00;;;22.00;99.90;;;;;;5036085;28;20033;-93
2022/04/26 15:25:27;;;;;;;5.32;1.15;;;21.80;99.90;;;;;;5058366;28;20032;-95
2022/04/26 15:27:54;;;;;;;4.35;1.30;;;21.60;99.90;;;;;;5074618;28;20090;-94
2022/04/26 15:30:20;;;;;;;5.93;1.42;;;21.50;99.90;;;;;;5061573;28;20100;-94
2022/04/26 15:32:48;;;;;;;3.75;1.08;;;21.50;99.90;;;;;;5075466;28;20040;-90
2022/04/26 15:35:15;;;;;;;6.10;1.40;;;21.60;99.90;;;;;;5054462;28;20024;-93
2022/04/26 15:37:42;;;;;;;7.20;1.08;;;21.60;99.90;;;;;;5056001;28;20469;-93
2022/04/26 15:40:11;;;;;;;6.25;1.00;;;21.50;99.90;;;;;;5055473;28;20025;-93
2022/04/26 15:42:38;;;;;;;4.55;1.10;;;21.50;99.90;;;;;;5073005;28;20117;-94
2022/04/26 15:45:05;;;;;;;4.18;1.13;;;21.40;99.90;;;;;;5054965;28;20080;-93
2022/04/26 15:47:33;;;;;;;4.13;1.13;;;21.40;99.90;;;;;;5054866;28;20044;-94
2022/04/26 15:49:59;;;;;;;4.80;1.48;;;21.20;99.90;;;;;;5057880;28;20517;-93
2022/04/26 15:52:29;;;;;;;7.88;1.40;;;21.20;99.90;;;;;;5071138;28;20094;-95
2022/04/26 15:54:55;;;;;;;6.57;1.27;;;21.20;99.90;;;;;;5054247;28;20021;-93
2022/04/26 15:57:22;;;;;;;6.65;1.20;;;21.30;99.90;;;;;;5053992;28;20136;-95
2022/04/26 15:59:48;;;;;;;9.00;1.15;;;21.30;99.90;;;;;;5054691;28;20061;-94
2022/04/26 16:02:19;;;;;;;6.47;1.67;;;21.20;99.90;;;;;;5072440;28;20500;-93
2022/04/26 16:04:50;;;;;;;3.28;1.38;;;21.20;99.90;;;;;;5054482;28;20025;-94
2022/04/26 16:07:20;;;;;;;3.53;1.27;;;21.10;99.90;;;;;;5070678;28;20401;-93
2022/04/26 16:21:03;;;;;;;5.20;1.42;;;20.80;99.90;;;;;;5074938;22;20056;-92
2022/04/26 16:24:00;;;;;;;2.90;1.35;;;20.70;99.90;;;;;;5052370;28;20056;-95
2022/04/26 16:26:42;;;;;;;7.38;1.23;;;20.60;99.90;;;;;;5048029;28;20048;-94
2022/04/26 16:29:10;;;;;;;8.63;1.58;;;20.50;99.90;;;;;;5010114;28;20053;-92
2022/04/26 16:31:41;;;;;;;9.32;1.65;;;20.50;99.90;;;;;;5010038;28;20025;-94
2022/04/26 16:34:11;;;;;;;6.88;1.88;;;20.30;99.90;;;;;;5008578;28;20048;-93
2022/04/26 16:36:37;;;;;;;3.28;1.50;;;20.40;99.90;;;;;;5005385;28;20030;-94
2022/04/26 16:39:11;;;;;;;8.25;2.13;;;20.40;99.90;;;;;;4999861;28;20030;-94
2022/04/26 16:41:40;;;;;;;7.68;1.67;;;20.40;99.90;;;;;;5005777;28;20101;-94
2022/04/26 16:44:12;;;;;;;8.82;1.50;;;20.30;99.90;;;;;;5004495;28;20394;-94
2022/04/26 16:53:07;;;;;;;8.35;1.50;;;20.10;99.90;;;;;;5084704;28;20043;-93
2022/04/26 17:10:48;;;;;;;9.63;2.40;;;19.70;99.90;;;;;;5024021;28;20069;-94
2022/04/26 17:13:15;;;;;;;4.90;2.33;;;19.60;99.90;;;;;;4997861;28;20547;-94
2022/04/26 17:15:43;;;;;;;9.57;3.45;;;19.60;99.90;;;;;;4998080;28;20085;-95
2022/04/26 17:18:14;;;;;;;14.18;4.93;;;19.60;99.90;;;;;;4997959;28;20109;-95
